Impacts TAF Board INFO
FOR SITUATIONAL AWARENESS. NOT TO BE USED FOR FLIGHT PLANNING PURPOSES.
IDs:

KMTH - Marathon Arpt, FL, US

Issued at 1739 UTC 21 Oct 2017
Updated at 1750 UTC 21 Oct 2017
Potential Impact None Slight Moderate High
Time1653Z 21/18Z 21/19Z 21/20Z 21/21Z 21/22Z 21/23Z 22/00Z 22/01Z 22/02Z 22/03Z 22/04Z 22/05Z 22/06Z>>
Type OBS PRVL PRVL PRVL PRVL PRVL PRVL PRVL PRVL PRVL PRVL PRVL PRVL PRVL
VIS 10 >6 >6 >6 >6 >6 >6 >6 >6 >6 >6 >6 >6 >6
CIG -- -- -- -- -- -- -- 40 40 40 40 40 40 40
Cover CLR SCT SCT SCT SCT SCT SCT OVC OVC OVC OVC OVC OVC OVC
FltCat VFR VFR VFR VFR VFR VFR VFR VFR VFR VFR VFR VFR VFR VFR
WX -- -- -- -- -- -- -- VCSH VCSH VCSH VCSH VCSH VCSH VCSH
WDir 90 90 90 90 90 90 90 100 100 100 100 100 100 100
WSpd 13 14 14 14 14 14 14 11 11 11 11 11 11 11
WGst 21 22 22 22 22 22 22 18 18 18 18 18 18 18

Raw TAF
KMTH 211739Z 2118/2218 09014G22KT P6SM SCT025 SCT150
  FM220000 10011G18KT P6SM VCSH SCT020 BKN040 OVC100


Raw METAR
KMTH 211653Z AUTO 09013G21KT 10SM CLR 31/23 A3003 RMK AO2 SLP168 T03060228
KMTH 211553Z AUTO 09012G20KT 10SM FEW022 31/23 A3004 RMK AO2 SLP171 T03060228
KMTH 211453Z AUTO 10010KT 10SM FEW025 31/23 A3004 RMK AO2 SLP170 T03060233 51018

METAR Board
Radar Display
Forecast Discussion

FOR SITUATIONAL AWARENESS. NOT TO BE USED FOR FLIGHT PLANNING PURPOSES.